createdAt,value
2023-01-29T00:00:42.816Z,-1.01
2023-01-29T00:01:42.844Z,-1.01
2023-01-29T00:02:42.885Z,-1.01
2023-01-29T00:03:42.794Z,-0.99
2023-01-29T00:04:42.785Z,-1.02
2023-01-29T00:05:42.804Z,-1.02
2023-01-29T00:06:42.757Z,-1.02
2023-01-29T00:07:42.752Z,-1.04
2023-01-29T00:08:42.744Z,-1.04
2023-01-29T00:09:42.735Z,-1.04
2023-01-29T00:10:42.724Z,-1.05
2023-01-29T00:11:43.125Z,-1.05
2023-01-29T00:12:42.699Z,-1.02
2023-01-29T00:13:42.690Z,-1.02
2023-01-29T00:14:42.685Z,-1.01
2023-01-29T00:15:42.684Z,-0.99
2023-01-29T00:16:42.753Z,-0.96
2023-01-29T00:17:42.701Z,-0.94
2023-01-29T00:18:42.640Z,-0.96
2023-01-29T00:19:42.637Z,-0.93
2023-01-29T00:20:42.619Z,-0.93
2023-01-29T00:21:42.616Z,-0.89
2023-01-29T00:22:42.608Z,-0.89
2023-01-29T00:23:42.611Z,-0.91
2023-01-29T00:24:42.576Z,-0.89
2023-01-29T00:25:42.575Z,-0.91
2023-01-29T00:26:42.572Z,-0.97
2023-01-29T00:27:42.551Z,-1.01
2023-01-29T00:28:42.537Z,-1.01
2023-01-29T00:29:42.562Z,-1.02
2023-01-29T00:30:42.522Z,-1.05
2023-01-29T00:31:42.580Z,-1.09
2023-01-29T00:32:42.496Z,-1.11
2023-01-29T00:33:42.502Z,-1.12
2023-01-29T00:34:42.475Z,-1.11
2023-01-29T00:35:42.512Z,-1.11
2023-01-29T00:36:42.456Z,-1.11
2023-01-29T00:37:42.448Z,-1.12
2023-01-29T00:38:42.434Z,-1.11
2023-01-29T00:39:48.160Z,-1.12
2023-01-29T00:40:42.418Z,-1.19
2023-01-29T00:41:42.450Z,-1.20
2023-01-29T00:42:42.395Z,-1.25
2023-01-29T00:43:42.424Z,-1.30
2023-01-29T00:44:42.442Z,-1.33
2023-01-29T00:45:42.370Z,-1.38
2023-01-29T00:46:42.479Z,-1.41
2023-01-29T00:47:42.391Z,-1.43
2023-01-29T00:48:42.342Z,-1.47
2023-01-29T00:49:42.325Z,-1.51
2023-01-29T00:50:42.315Z,-1.50
2023-01-29T00:51:42.319Z,-1.50
2023-01-29T00:52:42.295Z,-1.50
2023-01-29T00:53:42.315Z,-1.47
2023-01-29T00:54:42.276Z,-1.53
2023-01-29T00:55:42.268Z,-1.54
2023-01-29T00:56:42.260Z,-1.59
2023-01-29T00:57:42.280Z,-1.62
2023-01-29T00:58:42.278Z,-1.62
2023-01-29T00:59:42.229Z,-1.62
2023-01-29T01:00:42.301Z,-1.62
2023-01-29T01:01:42.247Z,-1.64
2023-01-29T01:02:42.207Z,-1.64
2023-01-29T01:03:42.207Z,-1.61
2023-01-29T01:04:42.211Z,-1.61
2023-01-29T01:05:42.166Z,-1.58
2023-01-29T01:06:42.155Z,-1.62
2023-01-29T01:07:42.145Z,-1.62
2023-01-29T01:08:42.143Z,-1.64
2023-01-29T01:09:42.123Z,-1.66
2023-01-29T01:10:42.136Z,-1.65
2023-01-29T01:11:42.120Z,-1.65
2023-01-29T01:12:42.101Z,-1.65
2023-01-29T01:13:42.090Z,-1.68
2023-01-29T01:14:42.077Z,-1.71
2023-01-29T01:15:42.298Z,-1.71
2023-01-29T01:16:42.056Z,-1.74
2023-01-29T01:17:42.051Z,-1.76
2023-01-29T01:18:42.034Z,-1.79
2023-01-29T01:19:42.034Z,-1.82
2023-01-29T01:20:42.013Z,-1.90
2023-01-29T01:21:42.036Z,-1.95
2023-01-29T01:22:41.999Z,-1.97
2023-01-29T01:23:42.002Z,-1.94
2023-01-29T01:24:41.976Z,-1.94
2023-01-29T01:25:41.966Z,-1.90
2023-01-29T01:26:41.962Z,-1.90
2023-01-29T01:27:41.982Z,-1.90
2023-01-29T01:28:41.929Z,-1.94
2023-01-29T01:29:41.923Z,-1.98
2023-01-29T01:30:41.943Z,-1.97
2023-01-29T01:31:41.971Z,-1.97
2023-01-29T01:32:41.893Z,-1.94
2023-01-29T01:33:41.914Z,-1.94
2023-01-29T01:34:41.870Z,-1.92
2023-01-29T01:35:41.859Z,-1.90
2023-01-29T01:36:41.872Z,-1.90
2023-01-29T01:37:41.855Z,-1.90
2023-01-29T01:38:41.829Z,-1.90
2023-01-29T01:39:41.860Z,-1.95
2023-01-29T01:40:41.808Z,-1.95
2023-01-29T01:41:41.798Z,-1.90
2023-01-29T01:42:41.788Z,-1.90
2023-01-29T01:43:41.808Z,-1.87
2023-01-29T01:44:41.767Z,-1.90
2023-01-29T01:45:41.829Z,-1.87
2023-01-29T01:46:41.752Z,-1.89
2023-01-29T01:47:41.743Z,-1.90
2023-01-29T01:48:41.740Z,-1.92
2023-01-29T01:49:41.748Z,-1.90
2023-01-29T01:50:41.710Z,-1.87
2023-01-29T01:51:41.742Z,-1.84
2023-01-29T01:52:41.696Z,-1.86
2023-01-29T01:53:41.687Z,-1.87
2023-01-29T01:54:41.668Z,-1.90
2023-01-29T01:55:41.666Z,-1.90
2023-01-29T01:56:41.648Z,-1.90
2023-01-29T01:57:41.688Z,-1.87
2023-01-29T01:58:41.628Z,-1.90
2023-01-29T01:59:41.619Z,-1.92
2023-01-29T02:00:41.671Z,-1.90
2023-01-29T02:01:41.599Z,-1.90
2023-01-29T02:02:41.587Z,-1.90
2023-01-29T02:03:41.623Z,-1.92
2023-01-29T02:04:41.571Z,-1.95
2023-01-29T02:05:41.563Z,-1.90
2023-01-29T02:06:41.552Z,-1.92
2023-01-29T02:07:41.539Z,-1.84
2023-01-29T02:08:41.531Z,-1.82
2023-01-29T02:09:41.537Z,-1.77
2023-01-29T02:10:41.510Z,-1.76
2023-01-29T02:11:41.506Z,-1.71
2023-01-29T02:12:41.499Z,-1.72
2023-01-29T02:13:41.484Z,-1.71
2023-01-29T02:14:41.514Z,-1.69
2023-01-29T02:15:41.468Z,-1.64
2023-01-29T02:16:41.448Z,-1.64
2023-01-29T02:17:41.483Z,-1.66
2023-01-29T02:18:41.435Z,-1.66
2023-01-29T02:19:41.426Z,-1.64
2023-01-29T02:20:41.640Z,-1.61
2023-01-29T02:21:41.400Z,-1.53
2023-01-29T02:22:43.936Z,-1.54
2023-01-29T02:23:41.429Z,-1.50
2023-01-29T02:24:41.435Z,-1.50
2023-01-29T02:25:41.358Z,-1.56
2023-01-29T02:26:41.356Z,-1.59
2023-01-29T02:27:41.343Z,-1.71
2023-01-29T02:28:41.359Z,-1.74
2023-01-29T02:29:41.324Z,-1.82
2023-01-29T02:30:41.417Z,-1.86
2023-01-29T02:31:41.331Z,-1.86
2023-01-29T02:32:41.307Z,-1.86
2023-01-29T02:33:41.317Z,-1.84
2023-01-29T02:34:41.261Z,-1.84
2023-01-29T02:35:41.256Z,-1.86
2023-01-29T02:36:41.237Z,-1.84
2023-01-29T02:37:41.237Z,-1.87
2023-01-29T02:38:41.221Z,-1.87
2023-01-29T02:39:41.252Z,-1.86
2023-01-29T02:40:41.200Z,-1.89
2023-01-29T02:41:41.205Z,-1.90
2023-01-29T02:42:41.186Z,-1.94
2023-01-29T02:43:41.181Z,-1.98
2023-01-29T02:44:41.183Z,-1.98
2023-01-29T02:45:41.209Z,-1.98
2023-01-29T02:46:41.155Z,-1.98
2023-01-29T02:47:41.144Z,-1.97
2023-01-29T02:48:41.120Z,-2.00
2023-01-29T02:49:41.126Z,-2.04
2023-01-29T02:50:41.101Z,-2.05
2023-01-29T02:51:41.147Z,-2.07
2023-01-29T02:52:41.084Z,-2.08
2023-01-29T02:53:41.077Z,-2.05
2023-01-29T02:54:41.075Z,-2.08
2023-01-29T02:55:41.068Z,-2.07
2023-01-29T02:56:41.045Z,-2.04
2023-01-29T02:57:41.083Z,-2.05
2023-01-29T02:58:41.018Z,-2.08
2023-01-29T02:59:41.017Z,-2.08
2023-01-29T03:00:41.009Z,-2.12
2023-01-29T03:01:41.001Z,-2.13
2023-01-29T03:02:40.986Z,-2.16
2023-01-29T03:03:41.024Z,-2.15
2023-01-29T03:04:40.964Z,-2.16
2023-01-29T03:05:40.959Z,-2.18
2023-01-29T03:06:40.938Z,-2.22
2023-01-29T03:07:40.942Z,-2.22
2023-01-29T03:08:40.926Z,-2.16
2023-01-29T03:09:40.956Z,-2.16
2023-01-29T03:10:40.896Z,-2.19
2023-01-29T03:11:40.895Z,-2.19
2023-01-29T03:12:40.893Z,-2.22
2023-01-29T03:13:40.875Z,-2.21
2023-01-29T03:14:40.860Z,-2.22
2023-01-29T03:15:40.885Z,-2.21
2023-01-29T03:16:40.892Z,-2.22
2023-01-29T03:17:40.838Z,-2.19
2023-01-29T03:18:40.823Z,-2.15
2023-01-29T03:19:40.812Z,-2.15
2023-01-29T03:20:40.815Z,-2.12
2023-01-29T03:21:41.280Z,-2.12
2023-01-29T03:22:40.789Z,-2.10
2023-01-29T03:23:40.778Z,-2.13
2023-01-29T03:24:40.764Z,-2.15
2023-01-29T03:25:40.760Z,-2.18
2023-01-29T03:26:40.763Z,-2.19
2023-01-29T03:27:40.761Z,-2.23
2023-01-29T03:28:40.728Z,-2.21
2023-01-29T03:29:40.716Z,-2.21
2023-01-29T03:30:40.704Z,-2.21
2023-01-29T03:31:40.820Z,-2.25
2023-01-29T03:32:40.684Z,-2.28
2023-01-29T03:33:40.698Z,-2.28
2023-01-29T03:34:40.665Z,-2.25
2023-01-29T03:35:40.659Z,-2.22
2023-01-29T03:36:40.643Z,-2.21
2023-01-29T03:37:40.653Z,-2.18
2023-01-29T03:38:40.625Z,-2.19
2023-01-29T03:39:40.648Z,-2.22
2023-01-29T03:40:40.603Z,-2.25
2023-01-29T03:41:40.612Z,-2.22
2023-01-29T03:42:40.583Z,-2.21
2023-01-29T03:43:40.579Z,-2.22
2023-01-29T03:44:40.589Z,-2.22
2023-01-29T03:45:40.588Z,-2.21
2023-01-29T03:46:40.658Z,-2.21
2023-01-29T03:47:40.533Z,-2.18
2023-01-29T03:48:40.527Z,-2.16
2023-01-29T03:49:40.515Z,-2.16
2023-01-29T03:50:40.510Z,-2.16
2023-01-29T03:51:40.531Z,-2.18
2023-01-29T03:52:40.491Z,-2.23
2023-01-29T03:53:40.474Z,-2.23
2023-01-29T03:54:40.486Z,-2.25
2023-01-29T03:55:40.455Z,-2.28
2023-01-29T03:56:40.452Z,-2.28
2023-01-29T03:57:40.473Z,-2.28
2023-01-29T03:58:40.439Z,-2.34
2023-01-29T03:59:40.430Z,-2.32
2023-01-29T04:00:40.411Z,-2.35
2023-01-29T04:01:40.435Z,-2.38
2023-01-29T04:02:40.394Z,-2.37
2023-01-29T04:03:40.411Z,-2.34
2023-01-29T04:04:40.367Z,-2.35
2023-01-29T04:05:40.358Z,-2.32
2023-01-29T04:06:40.355Z,-2.30
2023-01-29T04:07:40.334Z,-2.26
2023-01-29T04:08:40.335Z,-2.25
2023-01-29T04:09:40.343Z,-2.23
2023-01-29T04:10:40.321Z,-2.25
2023-01-29T04:11:40.298Z,-2.25
2023-01-29T04:12:40.301Z,-2.23
2023-01-29T04:13:40.276Z,-2.21
2023-01-29T04:14:40.271Z,-2.18
2023-01-29T04:15:40.296Z,-2.16
2023-01-29T04:16:40.275Z,-2.15
2023-01-29T04:17:40.239Z,-2.12
2023-01-29T04:18:40.234Z,-2.13
2023-01-29T04:19:40.222Z,-2.10
2023-01-29T04:20:40.227Z,-2.12
2023-01-29T04:21:40.235Z,-2.05
2023-01-29T04:22:40.208Z,-2.02
2023-01-29T04:23:40.184Z,-1.97
2023-01-29T04:24:40.172Z,-1.95
2023-01-29T04:25:40.160Z,-1.95
2023-01-29T04:26:40.148Z,-1.97
2023-01-29T04:27:40.161Z,-1.97
2023-01-29T04:28:40.132Z,-1.98
2023-01-29T04:29:40.122Z,-1.98
2023-01-29T04:30:40.175Z,-2.02
2023-01-29T04:31:40.240Z,-2.02
2023-01-29T04:32:40.093Z,-2.04
2023-01-29T04:33:40.154Z,-2.05
2023-01-29T04:34:40.076Z,-2.08
2023-01-29T04:35:40.073Z,-2.15
2023-01-29T04:36:40.057Z,-2.16
2023-01-29T04:37:40.041Z,-2.19
2023-01-29T04:38:40.035Z,-2.21
2023-01-29T04:39:40.050Z,-2.23
2023-01-29T04:40:40.018Z,-2.25
2023-01-29T04:41:40.001Z,-2.25
2023-01-29T04:42:40.004Z,-2.25
2023-01-29T04:43:39.976Z,-2.25
2023-01-29T04:44:39.972Z,-2.26
2023-01-29T04:45:39.991Z,-2.23
2023-01-29T04:46:39.959Z,-2.23
2023-01-29T04:47:39.948Z,-2.23
2023-01-29T04:48:39.941Z,-2.23
2023-01-29T04:49:39.928Z,-2.25
2023-01-29T04:50:39.916Z,-2.28
2023-01-29T04:51:39.922Z,-2.30
2023-01-29T04:52:39.896Z,-2.34
2023-01-29T04:53:39.888Z,-2.41
2023-01-29T04:54:39.911Z,-2.48
2023-01-29T04:55:39.863Z,-2.52
2023-01-29T04:56:39.862Z,-2.55
2023-01-29T04:57:39.857Z,-2.58
2023-01-29T04:58:39.849Z,-2.55
2023-01-29T04:59:39.842Z,-2.55
2023-01-29T05:00:39.850Z,-2.55
2023-01-29T05:01:39.856Z,-2.52
2023-01-29T05:02:39.833Z,-2.50
2023-01-29T05:03:39.788Z,-2.52
2023-01-29T05:04:39.785Z,-2.56
2023-01-29T05:05:39.804Z,-2.58
2023-01-29T05:06:39.766Z,-2.56
2023-01-29T05:07:39.762Z,-2.56
2023-01-29T05:08:39.759Z,-2.56
2023-01-29T05:09:39.736Z,-2.59
2023-01-29T05:10:39.741Z,-2.56
2023-01-29T05:11:39.744Z,-2.53
2023-01-29T05:12:39.708Z,-2.56
2023-01-29T05:13:39.707Z,-2.56
2023-01-29T05:14:39.687Z,-2.55
2023-01-29T05:15:39.677Z,-2.55
2023-01-29T05:16:39.673Z,-2.53
2023-01-29T05:17:39.684Z,-2.58
2023-01-29T05:18:39.651Z,-2.58
2023-01-29T05:19:39.644Z,-2.62
2023-01-29T05:20:39.639Z,-2.63
2023-01-29T05:21:41.095Z,-2.62
2023-01-29T05:22:39.621Z,-2.62
2023-01-29T05:23:39.630Z,-2.62
2023-01-29T05:24:39.599Z,-2.62
2023-01-29T05:25:39.585Z,-2.63
2023-01-29T05:26:39.610Z,-2.63
2023-01-29T05:27:39.574Z,-2.59
2023-01-29T05:28:39.562Z,-2.56
2023-01-29T05:29:39.964Z,-2.53
2023-01-29T05:30:39.603Z,-2.48
2023-01-29T05:31:39.630Z,-2.44
2023-01-29T05:32:39.526Z,-2.42
2023-01-29T05:33:39.507Z,-2.40
2023-01-29T05:34:39.505Z,-2.35
2023-01-29T05:35:39.514Z,-2.32
2023-01-29T05:36:39.486Z,-2.32
2023-01-29T05:37:39.481Z,-2.30
2023-01-29T05:38:39.468Z,-2.28
2023-01-29T05:39:39.453Z,-2.22
2023-01-29T05:40:39.445Z,-2.25
2023-01-29T05:41:39.452Z,-2.23
2023-01-29T05:42:39.442Z,-2.21
2023-01-29T05:43:39.412Z,-2.23
2023-01-29T05:44:39.434Z,-2.18
2023-01-29T05:45:39.388Z,-2.16
2023-01-29T05:46:39.424Z,-2.18
2023-01-29T05:47:39.387Z,-2.15
2023-01-29T05:48:39.374Z,-2.15
2023-01-29T05:49:39.354Z,-2.16
2023-01-29T05:50:39.357Z,-2.16
2023-01-29T05:51:39.352Z,-2.15
2023-01-29T05:52:39.356Z,-2.19
2023-01-29T05:53:39.428Z,-2.18
2023-01-29T05:54:39.316Z,-2.15
2023-01-29T05:55:39.294Z,-2.21
2023-01-29T05:56:39.293Z,-2.19
2023-01-29T05:57:39.276Z,-2.22
2023-01-29T05:58:39.307Z,-2.22
2023-01-29T05:59:39.275Z,-2.18
2023-01-29T06:00:39.252Z,-2.21
2023-01-29T06:01:39.327Z,-2.16
2023-01-29T06:02:39.268Z,-2.16
2023-01-29T06:03:39.211Z,-2.16
2023-01-29T06:04:39.250Z,-2.15
2023-01-29T06:05:39.228Z,-2.13
2023-01-29T06:06:39.187Z,-2.13
2023-01-29T06:07:39.174Z,-2.13
2023-01-29T06:08:39.168Z,-2.13
2023-01-29T06:09:39.180Z,-2.10
2023-01-29T06:10:39.150Z,-2.12
2023-01-29T06:11:39.136Z,-2.10
2023-01-29T06:12:39.143Z,-2.10
2023-01-29T06:13:39.133Z,-2.07
2023-01-29T06:14:39.130Z,-2.07
2023-01-29T06:15:39.137Z,-2.04
2023-01-29T06:16:39.084Z,-2.02
2023-01-29T06:17:39.076Z,-2.02
2023-01-29T06:18:39.080Z,-2.01
2023-01-29T06:19:39.052Z,-1.98
2023-01-29T06:20:39.054Z,-2.00
2023-01-29T06:21:39.064Z,-1.97
2023-01-29T06:22:39.027Z,-1.95
2023-01-29T06:23:39.012Z,-1.95
2023-01-29T06:24:39.013Z,-1.94
2023-01-29T06:25:38.998Z,-1.95
2023-01-29T06:26:38.987Z,-1.92
2023-01-29T06:27:38.989Z,-1.98
2023-01-29T06:28:38.970Z,-2.00
2023-01-29T06:29:38.978Z,-2.01
2023-01-29T06:30:38.992Z,-2.01
2023-01-29T06:31:39.789Z,-1.98
2023-01-29T06:32:38.986Z,-2.00
2023-01-29T06:33:38.922Z,-2.04
2023-01-29T06:34:38.907Z,-2.07
2023-01-29T06:35:38.902Z,-2.08
2023-01-29T06:36:38.887Z,-2.13
2023-01-29T06:37:38.889Z,-2.13
2023-01-29T06:38:38.898Z,-2.16
2023-01-29T06:39:38.853Z,-2.15
2023-01-29T06:40:38.847Z,-2.13
2023-01-29T06:41:38.834Z,-2.12
2023-01-29T06:42:38.826Z,-2.08
2023-01-29T06:43:38.825Z,-2.08
2023-01-29T06:44:38.834Z,-2.04
2023-01-29T06:45:38.826Z,-2.04
2023-01-29T06:46:38.788Z,-1.97
2023-01-29T06:47:38.779Z,-1.98
2023-01-29T06:48:38.780Z,-1.97
2023-01-29T06:49:38.749Z,-1.92
2023-01-29T06:50:38.764Z,-1.94
2023-01-29T06:51:38.761Z,-1.92
2023-01-29T06:52:38.730Z,-1.90
2023-01-29T06:53:38.743Z,-1.94
2023-01-29T06:54:38.710Z,-1.94
2023-01-29T06:55:38.700Z,-2.00
2023-01-29T06:56:38.714Z,-2.00
2023-01-29T06:57:38.679Z,-2.00
2023-01-29T06:58:38.674Z,-2.00
2023-01-29T06:59:38.666Z,-2.05
2023-01-29T07:00:38.677Z,-2.15
2023-01-29T07:01:38.677Z,-2.16
2023-01-29T07:02:38.635Z,-2.19
2023-01-29T07:03:38.617Z,-2.18
2023-01-29T07:04:38.622Z,-2.21
2023-01-29T07:05:38.599Z,-2.23
2023-01-29T07:06:38.604Z,-2.30
2023-01-29T07:07:38.593Z,-2.23
2023-01-29T07:08:38.576Z,-2.23
2023-01-29T07:09:38.556Z,-2.23
2023-01-29T07:10:38.553Z,-2.23
2023-01-29T07:11:38.540Z,-2.23
2023-01-29T07:12:38.942Z,-2.22
2023-01-29T07:13:38.534Z,-2.21
2023-01-29T07:14:38.542Z,-2.16
2023-01-29T07:15:38.517Z,-2.19
2023-01-29T07:16:38.559Z,-2.21
2023-01-29T07:17:38.485Z,-2.22
2023-01-29T07:18:38.494Z,-2.28
2023-01-29T07:19:38.458Z,-2.32
2023-01-29T07:20:38.458Z,-2.32
2023-01-29T07:21:38.439Z,-2.32
2023-01-29T07:22:38.440Z,-2.34
2023-01-29T07:23:38.423Z,-2.34
2023-01-29T07:24:38.451Z,-2.35
2023-01-29T07:25:38.398Z,-2.32
2023-01-29T07:26:38.395Z,-2.30
2023-01-29T07:27:38.383Z,-2.30
2023-01-29T07:28:38.387Z,-2.26
2023-01-29T07:29:38.366Z,-2.22
2023-01-29T07:30:38.427Z,-2.23
2023-01-29T07:31:38.412Z,-2.26
2023-01-29T07:32:38.339Z,-2.25
2023-01-29T07:33:38.330Z,-2.26
2023-01-29T07:34:38.323Z,-2.23
2023-01-29T07:35:38.314Z,-2.22
2023-01-29T07:36:38.339Z,-2.23
2023-01-29T07:37:38.297Z,-2.26
2023-01-29T07:38:38.280Z,-2.23
2023-01-29T07:39:38.277Z,-2.26
2023-01-29T07:40:38.271Z,-2.25
2023-01-29T07:41:38.258Z,-2.22
2023-01-29T07:42:38.267Z,-2.23
2023-01-29T07:43:38.235Z,-2.23
2023-01-29T07:44:38.221Z,-2.23
2023-01-29T07:45:38.303Z,-2.26
2023-01-29T07:46:38.219Z,-2.32
2023-01-29T07:47:38.191Z,-2.40
2023-01-29T07:48:38.217Z,-2.45
2023-01-29T07:49:38.175Z,-2.48
2023-01-29T07:50:38.160Z,-2.44
2023-01-29T07:51:38.176Z,-2.37
2023-01-29T07:52:38.147Z,-2.35
2023-01-29T07:53:38.147Z,-2.30
2023-01-29T07:54:38.151Z,-2.25
2023-01-29T07:55:38.121Z,-2.25
2023-01-29T07:56:38.107Z,-2.23
2023-01-29T07:57:38.099Z,-2.22
2023-01-29T07:58:38.103Z,-2.28
2023-01-29T07:59:38.079Z,-2.30
2023-01-29T08:00:38.109Z,-2.35
2023-01-29T08:01:38.060Z,-2.30
2023-01-29T08:02:38.069Z,-2.35
2023-01-29T08:03:38.048Z,-2.34
2023-01-29T08:04:38.026Z,-2.28
2023-01-29T08:05:38.022Z,-2.25
2023-01-29T08:06:38.059Z,-2.32
2023-01-29T08:07:38.007Z,-2.37
2023-01-29T08:08:37.987Z,-2.38
2023-01-29T08:09:37.982Z,-2.35
2023-01-29T08:10:37.972Z,-2.35
2023-01-29T08:11:37.969Z,-2.35
2023-01-29T08:12:37.979Z,-2.30
2023-01-29T08:13:37.944Z,-2.30
2023-01-29T08:14:37.929Z,-2.21
2023-01-29T08:15:39.291Z,-2.18
2023-01-29T08:16:37.968Z,-2.16
2023-01-29T08:17:49.099Z,-2.07
2023-01-29T08:18:37.967Z,-2.10
2023-01-29T08:19:37.887Z,-2.08
2023-01-29T08:20:37.880Z,-2.10
2023-01-29T08:21:37.870Z,-2.08
2023-01-29T08:22:37.857Z,-2.07
2023-01-29T08:23:37.852Z,-2.00
2023-01-29T08:24:53.259Z,-2.00
2023-01-29T08:25:37.904Z,-1.95
2023-01-29T08:26:37.817Z,-1.97
2023-01-29T08:27:37.831Z,-2.07
2023-01-29T08:28:37.802Z,-2.15
2023-01-29T08:29:37.796Z,-2.16
2023-01-29T08:30:37.856Z,-2.13
2023-01-29T08:31:37.798Z,-2.08
2023-01-29T08:32:37.761Z,-2.05
2023-01-29T08:33:39.329Z,-2.02
2023-01-29T08:34:37.745Z,-2.05
2023-01-29T08:35:37.760Z,-2.05
2023-01-29T08:36:37.756Z,-2.02
2023-01-29T08:37:37.719Z,-2.02
2023-01-29T08:38:37.736Z,-1.95
2023-01-29T08:39:37.719Z,-1.89
2023-01-29T08:40:37.711Z,-1.77
2023-01-29T08:41:37.682Z,-1.68
2023-01-29T08:42:37.676Z,-1.59
2023-01-29T08:43:37.660Z,-1.53
2023-01-29T08:44:37.667Z,-1.43
2023-01-29T08:45:37.737Z,-1.37
2023-01-29T08:46:37.629Z,-1.32
2023-01-29T08:47:37.622Z,-1.23
2023-01-29T08:48:37.623Z,-1.22
2023-01-29T08:49:37.627Z,-1.17
2023-01-29T08:50:37.637Z,-1.14
2023-01-29T08:51:37.601Z,-1.12
2023-01-29T08:52:37.571Z,-1.09
2023-01-29T08:53:37.569Z,-1.08
2023-01-29T08:54:37.563Z,-1.09
2023-01-29T08:55:37.559Z,-1.09
2023-01-29T08:56:37.551Z,-1.23
2023-01-29T08:57:37.536Z,-1.32
2023-01-29T08:58:37.515Z,-1.33
2023-01-29T08:59:37.507Z,-1.35
2023-01-29T09:00:37.501Z,-1.32
2023-01-29T09:01:37.515Z,-1.27
2023-01-29T09:02:37.525Z,-1.27
2023-01-29T09:03:37.467Z,-1.25
2023-01-29T09:04:37.456Z,-1.26
2023-01-29T09:05:37.481Z,-1.27
2023-01-29T09:06:37.435Z,-1.30
2023-01-29T09:07:37.476Z,-1.32
2023-01-29T09:08:37.417Z,-1.37
2023-01-29T09:09:37.416Z,-1.37
2023-01-29T09:10:37.401Z,-1.40
2023-01-29T09:11:37.417Z,-1.35
2023-01-29T09:12:37.376Z,-1.35
2023-01-29T09:13:37.400Z,-1.37
2023-01-29T09:14:37.382Z,-1.41
2023-01-29T09:15:37.368Z,-1.38
2023-01-29T09:16:37.364Z,-1.37
2023-01-29T09:17:37.332Z,-1.37
2023-01-29T09:18:37.324Z,-1.33
2023-01-29T09:19:37.336Z,-1.35
2023-01-29T09:20:37.298Z,-1.33
2023-01-29T09:21:37.297Z,-1.32
2023-01-29T09:22:37.289Z,-1.32
2023-01-29T09:23:37.275Z,-1.32
2023-01-29T09:24:37.279Z,-1.33
2023-01-29T09:25:37.269Z,-1.40
2023-01-29T09:26:37.323Z,-1.46
2023-01-29T09:27:37.233Z,-1.59
2023-01-29T09:28:37.230Z,-1.62
2023-01-29T09:29:37.217Z,-1.65
2023-01-29T09:30:37.353Z,-1.68
2023-01-29T09:31:37.318Z,-1.77
2023-01-29T09:32:52.735Z,-1.72
2023-01-29T09:33:37.188Z,-1.71
2023-01-29T09:34:37.170Z,-1.68
2023-01-29T09:35:37.154Z,-1.68
2023-01-29T09:36:37.180Z,-1.69
2023-01-29T09:37:37.151Z,-1.65
2023-01-29T09:38:37.128Z,-1.66
2023-01-29T09:39:37.128Z,-1.64
2023-01-29T09:40:37.116Z,-1.62
2023-01-29T09:41:37.098Z,-1.59
2023-01-29T09:42:37.103Z,-1.62
2023-01-29T09:43:37.096Z,-1.59
2023-01-29T09:44:37.072Z,-1.61
2023-01-29T09:45:37.086Z,-1.58
2023-01-29T09:46:37.049Z,-1.53
2023-01-29T09:47:37.046Z,-1.50
2023-01-29T09:48:37.058Z,-1.47
2023-01-29T09:49:37.022Z,-1.44
2023-01-29T09:50:37.013Z,-1.46
2023-01-29T09:51:37.005Z,-1.43
2023-01-29T09:52:36.993Z,-1.41
2023-01-29T09:53:37.002Z,-1.38
2023-01-29T09:54:37.002Z,-1.37
2023-01-29T09:55:36.994Z,-1.38
2023-01-29T09:56:36.996Z,-1.35
2023-01-29T09:57:36.951Z,-1.37
2023-01-29T09:58:36.936Z,-1.32
2023-01-29T09:59:36.931Z,-1.40
2023-01-29T10:00:36.916Z,-1.44
2023-01-29T10:01:37.070Z,-1.47
2023-01-29T10:02:36.910Z,-1.44
2023-01-29T10:03:36.901Z,-1.51
2023-01-29T10:04:36.926Z,-1.53
2023-01-29T10:05:36.870Z,-1.53
2023-01-29T10:06:36.859Z,-1.50
2023-01-29T10:07:37.024Z,-1.44
2023-01-29T10:08:36.844Z,-1.43
2023-01-29T10:09:36.838Z,-1.43
2023-01-29T10:10:36.827Z,-1.40
2023-01-29T10:11:36.811Z,-1.43
2023-01-29T10:12:36.796Z,-1.41
2023-01-29T10:13:36.815Z,-1.38
2023-01-29T10:14:36.783Z,-1.35
2023-01-29T10:15:36.788Z,-1.47
2023-01-29T10:16:36.793Z,-1.48
2023-01-29T10:17:36.756Z,-1.47
2023-01-29T10:18:36.744Z,-1.43
2023-01-29T10:19:36.768Z,-1.41
2023-01-29T10:20:36.724Z,-1.41
2023-01-29T10:21:36.718Z,-1.38
2023-01-29T10:22:36.700Z,-1.32
2023-01-29T10:23:36.699Z,-1.27
2023-01-29T10:24:36.683Z,-1.22
2023-01-29T10:25:36.706Z,-1.19
2023-01-29T10:26:36.688Z,-1.15
2023-01-29T10:27:36.665Z,-1.12
2023-01-29T10:28:36.648Z,-1.07
2023-01-29T10:29:36.646Z,-1.01
2023-01-29T10:30:36.630Z,-0.94
2023-01-29T10:31:36.774Z,-0.90
2023-01-29T10:32:36.605Z,-0.85
2023-01-29T10:33:49.152Z,-0.83
2023-01-29T10:34:36.621Z,-0.82
2023-01-29T10:35:36.591Z,-0.78
2023-01-29T10:36:36.568Z,-0.80
2023-01-29T10:37:36.593Z,-0.77
2023-01-29T10:38:36.551Z,-0.74
2023-01-29T10:39:37.112Z,-0.71
2023-01-29T10:40:36.544Z,-0.74
2023-01-29T10:41:36.533Z,-0.68
2023-01-29T10:42:36.511Z,-0.67
2023-01-29T10:43:36.514Z,-0.68
2023-01-29T10:44:36.494Z,-0.70
2023-01-29T10:45:36.512Z,-0.68
2023-01-29T10:46:36.478Z,-0.67
2023-01-29T10:47:36.547Z,-0.64
2023-01-29T10:48:36.465Z,-0.62
2023-01-29T10:49:36.468Z,-0.64
2023-01-29T10:50:36.454Z,-0.59
2023-01-29T10:51:36.442Z,-0.54
2023-01-29T10:52:36.414Z,-0.53
2023-01-29T10:53:36.415Z,-0.46
2023-01-29T10:54:36.403Z,-0.43
2023-01-29T10:55:36.507Z,-0.41
2023-01-29T10:56:36.376Z,-0.46
2023-01-29T10:57:36.377Z,-0.52
2023-01-29T10:58:36.364Z,-0.50
2023-01-29T10:59:36.386Z,-0.47
2023-01-29T11:00:36.344Z,-0.52
2023-01-29T11:01:36.440Z,-0.62
2023-01-29T11:02:36.344Z,-0.65
2023-01-29T11:03:36.368Z,-0.65
2023-01-29T11:04:36.308Z,-0.62
2023-01-29T11:05:36.329Z,-0.56
2023-01-29T11:06:36.292Z,-0.54
2023-01-29T11:07:36.317Z,-0.59
2023-01-29T11:08:36.270Z,-0.56
2023-01-29T11:09:36.262Z,-0.56
2023-01-29T11:10:36.243Z,-0.50
2023-01-29T11:11:36.239Z,-0.56
2023-01-29T11:12:36.227Z,-0.54
2023-01-29T11:13:36.274Z,-0.54
2023-01-29T11:14:36.204Z,-0.50
2023-01-29T11:15:36.204Z,-0.46
2023-01-29T11:16:36.212Z,-0.39
2023-01-29T11:17:36.186Z,-0.39
2023-01-29T11:18:36.195Z,-0.34
2023-01-29T11:19:36.177Z,-0.31
2023-01-29T11:20:36.157Z,-0.29
2023-01-29T11:21:36.148Z,-0.26
2023-01-29T11:22:36.128Z,-0.20
2023-01-29T11:23:36.131Z,-0.23
2023-01-29T11:24:36.151Z,-0.21
2023-01-29T11:25:36.100Z,-0.20
2023-01-29T11:26:36.141Z,-0.17
2023-01-29T11:27:36.087Z,-0.17
2023-01-29T11:28:36.072Z,-0.14
2023-01-29T11:29:36.068Z,-0.13
2023-01-29T11:30:36.122Z,-0.06
2023-01-29T11:31:36.183Z,-0.02
2023-01-29T11:32:36.030Z,0.00
2023-01-29T11:33:36.031Z,0.00
2023-01-29T11:34:36.019Z,0.01
2023-01-29T11:35:36.030Z,-0.13
2023-01-29T11:36:35.999Z,-0.28
2023-01-29T11:37:36.014Z,-0.31
2023-01-29T11:38:35.979Z,-0.28
2023-01-29T11:39:35.973Z,-0.26
2023-01-29T11:40:35.970Z,-0.26
2023-01-29T11:41:35.971Z,-0.23
2023-01-29T11:42:35.957Z,-0.21
2023-01-29T11:43:35.942Z,-0.17
2023-01-29T11:44:35.924Z,-0.18
2023-01-29T11:45:35.914Z,-0.17
2023-01-29T11:46:35.959Z,-0.14
2023-01-29T11:47:35.924Z,-0.11
2023-01-29T11:48:35.886Z,-0.10
2023-01-29T11:49:35.899Z,-0.06
2023-01-29T11:50:35.862Z,-0.07
2023-01-29T11:51:35.863Z,-0.10
2023-01-29T11:52:35.877Z,-0.14
2023-01-29T11:53:35.830Z,-0.13
2023-01-29T11:54:35.829Z,-0.14
2023-01-29T11:55:49.848Z,-0.11
2023-01-29T11:56:35.821Z,-0.15
2023-01-29T11:57:35.820Z,-0.18
2023-01-29T11:58:35.812Z,-0.11
2023-01-29T11:59:35.775Z,-0.08
2023-01-29T12:00:35.775Z,-0.06
2023-01-29T12:01:35.756Z,-0.03
2023-01-29T12:02:35.750Z,0.03
2023-01-29T12:03:35.797Z,0.05
2023-01-29T12:04:35.731Z,0.08
2023-01-29T12:05:35.733Z,0.11
2023-01-29T12:06:35.708Z,0.11
2023-01-29T12:07:35.711Z,0.18
2023-01-29T12:08:35.727Z,0.19
2023-01-29T12:09:35.679Z,0.23
2023-01-29T12:10:35.746Z,0.28
2023-01-29T12:11:35.678Z,0.34
2023-01-29T12:12:35.655Z,0.37
2023-01-29T12:13:35.660Z,0.41
2023-01-29T12:14:35.669Z,0.36
2023-01-29T12:15:35.645Z,0.31
2023-01-29T12:16:35.730Z,0.19
2023-01-29T12:17:35.600Z,0.19
2023-01-29T12:18:35.603Z,0.21
2023-01-29T12:19:35.591Z,0.22
2023-01-29T12:20:35.598Z,0.23
2023-01-29T12:21:35.571Z,0.22
2023-01-29T12:22:35.560Z,0.16
2023-01-29T12:23:35.548Z,0.19
2023-01-29T12:24:35.545Z,0.25
2023-01-29T12:25:35.551Z,0.26
2023-01-29T12:26:35.582Z,0.28
2023-01-29T12:27:35.525Z,0.28
2023-01-29T12:28:35.493Z,0.29
2023-01-29T12:29:35.488Z,0.23
2023-01-29T12:30:35.504Z,0.12
2023-01-29T12:31:35.570Z,0.10
2023-01-29T12:32:35.459Z,0.16
2023-01-29T12:33:35.449Z,0.22
2023-01-29T12:34:35.447Z,0.32
2023-01-29T12:35:35.434Z,0.39
2023-01-29T12:36:35.691Z,0.46
2023-01-29T12:37:35.412Z,0.55
2023-01-29T12:38:35.400Z,0.63
2023-01-29T12:39:35.390Z,0.63
2023-01-29T12:40:35.384Z,0.65
2023-01-29T12:41:35.377Z,0.70
2023-01-29T12:42:35.406Z,0.74
2023-01-29T12:43:35.355Z,0.81
2023-01-29T12:44:35.355Z,0.84
2023-01-29T12:45:35.334Z,0.92
2023-01-29T12:46:35.337Z,0.96
2023-01-29T12:47:35.321Z,0.98
2023-01-29T12:48:35.319Z,1.04
2023-01-29T12:49:35.330Z,1.08
2023-01-29T12:50:35.308Z,1.13
2023-01-29T12:51:35.272Z,1.19
2023-01-29T12:52:35.267Z,1.24
2023-01-29T12:53:35.267Z,1.31
2023-01-29T12:54:35.279Z,1.10